Martinsville, Virginia
Current Conditions -  °F | °C
As of 2:35 AM on Wednesday 22 Oct 2014 (Local Time) from KMTV Reporting Station
Clear Clear  
Wind Chill: 42°   Ceiling: Unl
Heat Index: 46°   Visibility: 10mi
Dew Point: 40°   Wind: 7mph
Humidity: 79%   Direction: 340°NNW
Pressure: 30"   Gusts: NA
Location:  36.69°N, 79.87°W
Report Text: KMTV 220635Z AUTO 34006KT 10SM CLR 08/04 A3000 RMK AO2 T00780044
Loading
Personal Weather Stations






























Interactive Weather Map New forecast layout! Learn more

10-Day Weather Forecast

Advertisements
Track Severe Weather on mobile